Time;durP1;ratioP1;P1;durP2;ratioP2;P2;SDS_P1;SDS_P2;PMS_P1;PMS_P2;Temp;Humidity;BMP_temperature;BMP_pressure;BME280_temperature;BME280_humidity;BME280_pressure;Samples;Min_cycle;Max_cycle;Signal;HPM_P1;HPM_P2
2023/12/18 00:02:10;;;;;;;22.52;8.57;;;;;;;3.84;100.00;103030.84;5016257;28;20108;-88
2023/12/18 00:04:35;;;;;;;22.23;8.40;;;;;;;3.77;100.00;103023.75;5019470;28;20146;-89
2023/12/18 00:07:02;;;;;;;16.92;8.48;;;;;;;3.74;100.00;103033.72;5022027;28;20089;-88
2023/12/18 00:09:27;;;;;;;23.63;9.00;;;;;;;3.67;100.00;103030.22;5021530;28;20041;-89
2023/12/18 00:11:53;;;;;;;22.88;8.85;;;;;;;3.71;100.00;103050.94;5004225;28;20040;-88
2023/12/18 00:14:18;;;;;;;15.82;8.75;;;;;;;3.63;100.00;103066.41;5042718;28;20115;-88
2023/12/18 00:16:43;;;;;;;26.73;9.05;;;;;;;3.57;100.00;103063.78;5020030;28;20029;-87
2023/12/18 00:19:09;;;;;;;22.50;8.52;;;;;;;3.48;100.00;103064.81;5008461;28;20178;-87
2023/12/18 00:21:36;;;;;;;24.60;9.98;;;;;;;3.54;100.00;103067.41;5039772;28;20509;-87
2023/12/18 00:24:05;;;;;;;18.02;8.30;;;;;;;3.41;100.00;103058.59;5001093;28;20033;-87
2023/12/18 00:26:30;;;;;;;22.80;9.82;;;;;;;3.40;100.00;103062.19;5030322;28;20029;-88
2023/12/18 00:28:56;;;;;;;22.88;9.55;;;;;;;3.38;100.00;103060.41;5004717;28;20036;-86
2023/12/18 00:31:21;;;;;;;26.77;9.27;;;;;;;3.44;100.00;103063.03;5046555;28;20082;-87
2023/12/18 00:33:46;;;;;;;24.67;9.75;;;;;;;3.48;100.00;103059.41;5030134;28;20418;-87
2023/12/18 00:36:12;;;;;;;19.95;9.23;;;;;;;3.54;100.00;103055.69;5060817;28;20163;-87
2023/12/18 00:38:37;;;;;;;22.45;9.52;;;;;;;3.52;100.00;103050.28;5049878;28;20044;-87
2023/12/18 00:41:03;;;;;;;23.85;10.15;;;;;;;3.53;100.00;103048.50;5033443;28;20398;-85
2023/12/18 00:43:28;;;;;;;23.55;9.18;;;;;;;3.63;100.00;103053.75;5028786;28;20051;-86
2023/12/18 00:45:54;;;;;;;24.52;10.70;;;;;;;3.77;100.00;103058.06;5036101;28;20029;-83
2023/12/18 00:48:20;;;;;;;29.20;10.63;;;;;;;3.70;100.00;103048.25;5048779;28;20052;-83
2023/12/18 00:50:46;;;;;;;24.98;9.57;;;;;;;3.71;100.00;103040.09;5040051;28;20041;-85
2023/12/18 00:53:16;;;;;;;26.58;10.05;;;;;;;3.71;100.00;103037.38;5016264;28;20033;-86
2023/12/18 00:55:41;;;;;;;30.35;11.15;;;;;;;3.80;100.00;103039.94;5052953;28;20039;-86
2023/12/18 00:58:07;;;;;;;22.25;9.55;;;;;;;3.81;100.00;103030.03;5035554;28;20425;-85
2023/12/18 01:00:32;;;;;;;27.67;9.85;;;;;;;3.85;100.00;103029.94;5006512;28;20509;-86
2023/12/18 01:02:57;;;;;;;22.88;9.38;;;;;;;3.93;100.00;103020.78;5002882;28;20120;-84
2023/12/18 01:05:23;;;;;;;18.00;9.30;;;;;;;4.01;100.00;103013.44;5023180;28;20068;-86
2023/12/18 01:07:48;;;;;;;19.30;8.82;;;;;;;4.00;100.00;103006.22;5027597;28;20599;-86
2023/12/18 01:10:13;;;;;;;27.10;9.52;;;;;;;4.06;100.00;103019.66;5028132;28;20518;-86
2023/12/18 01:12:39;;;;;;;20.50;8.98;;;;;;;4.04;100.00;103013.38;5021807;28;20072;-86
2023/12/18 01:15:04;;;;;;;19.10;8.63;;;;;;;4.12;100.00;103008.72;5050877;28;20083;-86
2023/12/18 01:17:31;;;;;;;26.30;10.57;;;;;;;4.22;100.00;103021.19;5031258;28;20028;-85
2023/12/18 01:19:57;;;;;;;27.73;10.73;;;;;;;4.30;100.00;103017.47;5029732;28;20020;-86
2023/12/18 01:22:23;;;;;;;26.02;10.77;;;;;;;4.36;100.00;103015.53;5041838;28;20028;-83
2023/12/18 01:24:49;;;;;;;26.38;12.23;;;;;;;4.39;100.00;103010.06;5032464;28;20069;-86
2023/12/18 01:27:15;;;;;;;27.63;11.70;;;;;;;4.42;100.00;103025.38;5037398;28;20039;-84
2023/12/18 01:29:41;;;;;;;26.30;11.90;;;;;;;4.42;100.00;103030.78;5030478;28;20396;-84
2023/12/18 01:32:08;;;;;;;21.80;11.98;;;;;;;4.45;100.00;103029.84;5018577;28;20040;-84
2023/12/18 01:34:34;;;;;;;26.83;10.25;;;;;;;4.46;100.00;103027.13;5006353;28;20106;-84
2023/12/18 01:37:03;;;;;;;18.90;8.30;;;;;;;4.47;100.00;103025.28;5026129;28;20033;-84
2023/12/18 01:39:30;;;;;;;24.92;11.57;;;;;;;4.49;100.00;103026.16;5053775;28;20025;-84
2023/12/18 01:41:55;;;;;;;31.88;12.48;;;;;;;4.51;100.00;103022.50;5006359;28;20042;-84
2023/12/18 01:44:21;;;;;;;26.50;12.68;;;;;;;4.57;100.00;103024.19;5023170;28;20487;-85
2023/12/18 01:46:46;;;;;;;28.10;12.70;;;;;;;4.57;100.00;103030.50;4983003;28;20491;-84
2023/12/18 01:49:12;;;;;;;26.83;12.68;;;;;;;4.60;100.00;103035.88;5008916;28;20043;-84
2023/12/18 01:51:38;;;;;;;26.83;12.80;;;;;;;4.60;100.00;103030.44;5000398;28;20029;-85
2023/12/18 01:54:05;;;;;;;33.25;13.88;;;;;;;4.62;100.00;103038.56;5007737;28;20025;-84
2023/12/18 01:56:32;;;;;;;30.75;12.98;;;;;;;4.63;100.00;103023.19;5040462;28;20037;-85
2023/12/18 01:58:59;;;;;;;31.40;13.32;;;;;;;4.56;100.00;103025.13;4993920;28;20112;-84
2023/12/18 02:01:26;;;;;;;37.58;14.63;;;;;;;4.57;100.00;103021.47;4989947;28;20036;-84
2023/12/18 02:03:53;;;;;;;25.65;11.70;;;;;;;4.58;100.00;103026.00;5040871;28;20029;-85
2023/12/18 02:06:19;;;;;;;33.55;14.38;;;;;;;4.63;100.00;103031.34;5003560;28;20071;-84
2023/12/18 02:08:45;;;;;;;37.13;13.57;;;;;;;4.60;100.00;103027.72;5046143;28;20049;-85
2023/12/18 02:11:12;;;;;;;28.20;14.35;;;;;;;4.59;100.00;103023.25;5020987;28;20025;-85
2023/12/18 02:13:42;;;;;;;26.42;12.50;;;;;;;4.57;100.00;103016.94;5035264;28;20033;-85
2023/12/18 02:16:08;;;;;;;31.30;14.07;;;;;;;4.60;100.00;103016.00;5005217;28;20018;-85
2023/12/18 02:18:41;;;;;;;31.67;13.63;;;;;;;4.63;100.00;103017.75;5017884;28;20120;-84
2023/12/18 02:21:06;;;;;;;31.67;12.57;;;;;;;4.53;100.00;103001.66;4997711;28;20032;-84
2023/12/18 02:23:32;;;;;;;34.35;15.80;;;;;;;4.63;100.00;103004.19;5000902;28;20034;-84
2023/12/18 02:25:57;;;;;;;35.63;14.32;;;;;;;4.59;100.00;103003.34;4993387;28;20503;-85
2023/12/18 02:28:24;;;;;;;34.78;15.23;;;;;;;4.62;100.00;103002.41;5005050;28;20406;-84
2023/12/18 02:30:49;;;;;;;37.75;15.27;;;;;;;4.57;100.00;103000.66;5008575;28;20522;-84
2023/12/18 02:33:16;;;;;;;30.02;13.80;;;;;;;4.59;100.00;103004.25;5020377;28;20065;-84
2023/12/18 02:35:43;;;;;;;35.40;15.68;;;;;;;4.60;100.00;103006.03;5003762;28;20500;-84
2023/12/18 02:38:08;;;;;;;40.45;17.08;;;;;;;4.68;100.00;103002.28;4982111;28;20021;-84
2023/12/18 02:40:35;;;;;;;38.75;15.40;;;;;;;4.65;100.00;103000.50;5000445;28;20518;-84
2023/12/18 02:43:01;;;;;;;39.85;17.10;;;;;;;4.68;100.00;102994.16;5008326;28;20048;-84
2023/12/18 02:45:26;;;;;;;43.35;16.15;;;;;;;4.71;100.00;102994.09;5010257;28;20418;-84
2023/12/18 02:47:52;;;;;;;41.53;16.40;;;;;;;4.71;100.00;102985.94;5018266;28;20034;-85
2023/12/18 02:50:20;;;;;;;41.67;16.08;;;;;;;4.78;100.00;102993.03;5023978;28;20040;-84
2023/12/18 02:52:46;;;;;;;38.70;16.45;;;;;;;4.67;100.00;102985.09;5024204;28;20033;-84
2023/12/18 02:55:12;;;;;;;37.22;16.75;;;;;;;4.68;100.00;102991.44;5035045;28;20040;-85
2023/12/18 02:57:38;;;;;;;42.28;16.38;;;;;;;4.66;100.00;102975.19;5026480;28;20148;-84
2023/12/18 03:00:04;;;;;;;30.98;14.88;;;;;;;4.70;100.00;102982.31;5017362;28;20041;-88
2023/12/18 03:02:29;;;;;;;38.92;16.20;;;;;;;4.66;100.00;102980.63;5034779;28;20176;-87
2023/12/18 03:04:54;;;;;;;38.65;16.30;;;;;;;4.70;100.00;102984.16;5000267;28;20116;-88
2023/12/18 03:07:20;;;;;;;34.67;15.70;;;;;;;4.68;100.00;102976.03;4984305;28;20021;-88
2023/12/18 03:09:45;;;;;;;48.28;16.48;;;;;;;4.69;100.00;102977.84;5018594;28;20502;-87
2023/12/18 03:12:11;;;;;;;36.05;16.00;;;;;;;4.68;100.00;102965.19;5037400;28;20029;-87
2023/12/18 03:14:37;;;;;;;36.92;16.27;;;;;;;4.70;100.00;102970.59;4997314;28;20550;-87
2023/12/18 03:17:03;;;;;;;41.63;17.10;;;;;;;4.72;100.00;102979.56;5003719;28;20124;-87
2023/12/18 03:19:28;;;;;;;42.20;16.98;;;;;;;4.69;100.00;102963.34;5031115;28;20498;-87
2023/12/18 03:21:54;;;;;;;34.42;16.02;;;;;;;4.68;100.00;102962.47;4999660;28;20037;-87
2023/12/18 03:24:20;;;;;;;36.75;16.83;;;;;;;4.66;100.00;102967.03;4984513;28;20029;-88
2023/12/18 03:26:45;;;;;;;38.95;16.55;;;;;;;4.67;100.00;102960.66;4998660;28;20064;-88
2023/12/18 03:29:11;;;;;;;44.83;17.95;;;;;;;4.65;100.00;102967.06;5016848;28;20060;-88
2023/12/18 03:31:36;;;;;;;43.78;17.73;;;;;;;4.69;100.00;102960.66;5016094;28;20034;-88
2023/12/18 03:34:02;;;;;;;44.20;17.60;;;;;;;4.64;100.00;102958.06;4981868;28;20523;-88
2023/12/18 03:36:28;;;;;;;46.78;16.88;;;;;;;4.63;100.00;102961.69;4996959;28;20036;-88
2023/12/18 03:38:53;;;;;;;44.47;18.90;;;;;;;4.63;100.00;102955.38;5011569;28;20025;-88
2023/12/18 03:41:18;;;;;;;42.55;17.98;;;;;;;4.64;100.00;102957.13;5001411;28;20117;-88
2023/12/18 03:43:44;;;;;;;43.50;17.38;;;;;;;4.63;100.00;102952.66;5017391;28;20060;-88
2023/12/18 03:46:09;;;;;;;46.42;17.33;;;;;;;4.60;100.00;102948.16;4998121;28;20467;-88
2023/12/18 03:48:35;;;;;;;42.83;18.08;;;;;;;4.63;100.00;102944.50;5028890;28;20120;-89
2023/12/18 03:51:01;;;;;;;47.55;19.50;;;;;;;4.64;100.00;102952.63;5028358;28;20083;-89
2023/12/18 03:53:28;;;;;;;37.75;16.90;;;;;;;4.62;100.00;102950.84;5008165;28;20071;-89
2023/12/18 03:55:53;;;;;;;46.03;18.23;;;;;;;4.65;100.00;102948.97;4978485;28;20104;-89
2023/12/18 03:58:18;;;;;;;41.53;17.17;;;;;;;4.66;100.00;102952.59;4980976;28;20101;-89
2023/12/18 04:00:44;;;;;;;46.95;16.98;;;;;;;4.64;100.00;102951.72;5001907;28;20029;-88
2023/12/18 04:03:09;;;;;;;48.45;18.60;;;;;;;4.64;100.00;102959.84;5006708;28;20066;-90
2023/12/18 04:05:35;;;;;;;47.45;18.40;;;;;;;4.65;100.00;102951.69;5003231;28;20538;-89
2023/12/18 04:08:01;;;;;;;43.92;18.80;;;;;;;4.72;100.00;102966.94;5039802;28;20060;-89
2023/12/18 04:10:27;;;;;;;46.33;17.30;;;;;;;4.67;100.00;102962.50;5001170;28;20026;-90
2023/12/18 04:12:52;;;;;;;48.83;17.55;;;;;;;4.67;100.00;102963.38;4995621;28;20037;-89
2023/12/18 04:15:18;;;;;;;45.17;18.58;;;;;;;4.71;100.00;102961.53;5003280;28;20058;-87
2023/12/18 04:17:43;;;;;;;54.88;18.73;;;;;;;4.66;100.00;102958.91;4994565;28;20037;-88
2023/12/18 04:20:10;;;;;;;51.80;18.52;;;;;;;4.65;100.00;102973.38;5016182;28;20443;-88
2023/12/18 04:22:37;;;;;;;51.20;18.60;;;;;;;4.70;100.00;102960.63;5018317;28;20033;-88
2023/12/18 04:25:03;;;;;;;49.53;18.10;;;;;;;4.68;100.00;102962.47;4994965;28;20116;-88
2023/12/18 04:27:29;;;;;;;40.67;16.88;;;;;;;4.65;100.00;102965.25;5026166;28;20033;-87
2023/12/18 04:29:54;;;;;;;39.53;16.73;;;;;;;4.65;100.00;102961.66;5016703;28;20029;-87
2023/12/18 04:32:20;;;;;;;37.88;14.98;;;;;;;4.67;100.00;102960.66;4983305;28;20423;-87
2023/12/18 04:34:45;;;;;;;54.95;16.65;;;;;;;4.65;100.00;102956.22;5024104;28;20032;-87
2023/12/18 04:37:10;;;;;;;50.22;18.92;;;;;;;4.71;100.00;102948.84;5020842;28;20032;-88
2023/12/18 04:39:37;;;;;;;45.45;19.02;;;;;;;4.69;100.00;102953.41;5017147;28;20043;-87
2023/12/18 04:42:02;;;;;;;47.78;17.95;;;;;;;4.72;100.00;102949.72;5028367;28;20057;-88
2023/12/18 04:44:28;;;;;;;53.83;19.20;;;;;;;4.69;100.00;102942.56;5024347;28;20099;-88
2023/12/18 04:46:54;;;;;;;49.92;18.83;;;;;;;4.76;100.00;102956.91;5013443;28;20022;-88
2023/12/18 04:49:19;;;;;;;47.00;18.75;;;;;;;4.73;100.00;102951.53;4985275;28;20056;-88
2023/12/18 04:51:45;;;;;;;48.60;17.95;;;;;;;4.71;100.00;102950.69;4999836;28;20038;-88
2023/12/18 04:54:10;;;;;;;49.28;18.58;;;;;;;4.70;100.00;102946.16;4998842;28;20391;-87
2023/12/18 04:56:36;;;;;;;51.17;19.40;;;;;;;4.69;100.00;102938.94;4999762;28;20554;-88
2023/12/18 04:59:03;;;;;;;41.40;17.08;;;;;;;4.69;100.00;102941.66;5009104;28;20037;-89
2023/12/18 05:01:28;;;;;;;44.40;17.77;;;;;;;4.70;100.00;102946.16;5007435;28;20029;-89
2023/12/18 05:03:54;;;;;;;53.03;19.33;;;;;;;4.71;100.00;102939.81;5030744;28;20060;-90
2023/12/18 05:06:25;;;;;;;50.25;19.88;;;;;;;4.72;100.00;102942.50;5004199;28;20391;-87
2023/12/18 05:08:51;;;;;;;47.67;18.27;;;;;;;4.72;100.00;102936.16;4994281;28;20114;-90
2023/12/18 05:11:18;;;;;;;48.95;18.73;;;;;;;4.74;100.00;102940.66;5018064;28;20499;-89
2023/12/18 05:13:43;;;;;;;57.65;19.95;;;;;;;4.72;100.00;102936.16;4990699;28;20605;-87
2023/12/18 05:16:09;;;;;;;49.22;18.70;;;;;;;4.73;100.00;102935.25;4997390;28;20030;-89
2023/12/18 05:18:34;;;;;;;47.92;18.35;;;;;;;4.74;100.00;102942.47;5037276;28;20105;-89
2023/12/18 05:21:00;;;;;;;46.55;18.15;;;;;;;4.71;100.00;102934.41;5013414;28;20029;-89
2023/12/18 05:23:27;;;;;;;53.08;19.42;;;;;;;4.74;100.00;102942.47;4981950;28;20045;-88
2023/12/18 05:25:52;;;;;;;49.88;19.33;;;;;;;4.75;100.00;102942.41;4982069;28;20040;-89
2023/12/18 05:28:18;;;;;;;41.47;17.55;;;;;;;4.74;100.00;102932.50;5019321;28;20029;-89
2023/12/18 05:30:44;;;;;;;50.33;19.58;;;;;;;4.76;100.00;102930.66;5022916;28;20120;-87
2023/12/18 05:33:10;;;;;;;48.38;19.52;;;;;;;4.77;100.00;102939.66;4971392;28;20120;-88
2023/12/18 05:35:36;;;;;;;54.40;20.45;;;;;;;4.80;100.00;102942.31;5008482;28;20055;-88
2023/12/18 05:38:02;;;;;;;63.20;20.95;;;;;;;4.82;100.00;102937.78;5033122;28;20045;-88
2023/12/18 05:40:27;;;;;;;49.65;18.60;;;;;;;4.74;100.00;102929.78;5004383;28;20384;-87
2023/12/18 05:42:54;;;;;;;59.90;19.65;;;;;;;4.79;100.00;102929.69;5014391;28;20399;-87
2023/12/18 05:45:19;;;;;;;56.08;19.25;;;;;;;4.79;100.00;102937.84;5056178;28;20033;-88
2023/12/18 05:47:45;;;;;;;54.40;20.25;;;;;;;4.82;100.00;102937.78;5035969;28;20036;-87
2023/12/18 05:50:11;;;;;;;55.72;20.75;;;;;;;4.81;100.00;102940.53;5038864;28;20116;-87
2023/12/18 05:52:36;;;;;;;51.67;19.25;;;;;;;4.82;100.00;102935.06;5050877;28;20029;-88
2023/12/18 05:55:02;;;;;;;49.58;20.05;;;;;;;4.81;100.00;102935.97;5018991;28;20048;-88
2023/12/18 05:57:27;;;;;;;76.15;22.60;;;;;;;4.87;100.00;102946.72;5063060;28;20033;-88
2023/12/18 05:59:53;;;;;;;52.85;19.90;;;;;;;4.86;100.00;102944.03;5027836;28;20036;-88
2023/12/18 06:02:18;;;;;;;53.08;20.50;;;;;;;4.87;100.00;102946.72;5040289;28;20024;-88
2023/12/18 06:04:44;;;;;;;51.90;19.25;;;;;;;4.86;100.00;102960.31;5028979;28;20040;-88
2023/12/18 06:07:10;;;;;;;56.45;20.50;;;;;;;4.87;100.00;102946.72;5013292;28;20072;-88
2023/12/18 06:09:35;;;;;;;48.45;19.13;;;;;;;4.87;100.00;102941.28;5033099;28;20494;-87
2023/12/18 06:12:01;;;;;;;62.72;20.20;;;;;;;4.84;100.00;102935.91;5029079;28;20025;-87
2023/12/18 06:14:27;;;;;;;56.25;20.73;;;;;;;4.87;100.00;102943.09;5036557;28;20093;-87
2023/12/18 06:16:52;;;;;;;53.45;19.75;;;;;;;4.89;100.00;102938.53;5040705;28;20079;-86
2023/12/18 06:19:18;;;;;;;53.25;19.52;;;;;;;4.95;100.00;102941.09;5026540;28;20115;-86
2023/12/18 06:21:43;;;;;;;55.72;20.23;;;;;;;4.90;100.00;102949.38;5030981;28;20128;-87
2023/12/18 06:24:09;;;;;;;54.15;21.08;;;;;;;4.84;100.00;102941.34;5001870;28;20450;-87
2023/12/18 06:26:34;;;;;;;59.67;19.70;;;;;;;4.77;100.00;102929.72;5039508;28;20051;-87
2023/12/18 06:28:59;;;;;;;53.97;19.95;;;;;;;4.82;100.00;102943.22;5026882;28;20032;-87
2023/12/18 06:31:25;;;;;;;48.10;20.30;;;;;;;4.88;100.00;102948.47;5024980;28;20433;-84
2023/12/18 06:33:50;;;;;;;59.97;20.20;;;;;;;4.86;100.00;102947.63;5054364;28;20028;-84
2023/12/18 06:36:19;;;;;;;51.13;17.67;;;;;;;4.82;100.00;102954.06;5015041;28;20052;-84
2023/12/18 06:38:45;;;;;;;60.47;21.20;;;;;;;4.80;100.00;102942.31;5037131;28;20035;-86
2023/12/18 06:41:10;;;;;;;64.10;20.08;;;;;;;4.86;100.00;102941.31;5060324;28;20027;-85
2023/12/18 06:43:36;;;;;;;60.42;21.02;;;;;;;4.87;100.00;102940.38;5008674;28;20045;-85
2023/12/18 06:46:01;;;;;;;71.13;23.63;;;;;;;4.89;100.00;102946.69;5033398;28;20410;-85
2023/12/18 06:48:27;;;;;;;58.83;21.48;;;;;;;4.90;100.00;102937.59;5006367;28;20033;-85
2023/12/18 06:50:53;;;;;;;62.38;20.80;;;;;;;4.88;100.00;102942.16;5030651;28;20395;-87
2023/12/18 06:53:19;;;;;;;57.10;20.80;;;;;;;4.87;100.00;102930.44;5006128;28;20030;-85
2023/12/18 06:55:44;;;;;;;60.25;21.05;;;;;;;4.87;100.00;102943.09;5037644;28;20036;-85
2023/12/18 06:58:10;;;;;;;67.30;21.75;;;;;;;4.90;100.00;102945.72;5003477;28;20032;-84
2023/12/18 07:00:36;;;;;;;60.97;21.48;;;;;;;4.86;100.00;102946.75;5004142;28;20063;-84
2023/12/18 07:03:03;;;;;;;54.72;19.05;;;;;;;4.86;100.00;102944.91;5027965;28;20561;-85
2023/12/18 07:05:29;;;;;;;54.72;21.35;;;;;;;4.87;100.00;102946.72;5029302;28;20575;-84
2023/12/18 07:07:55;;;;;;;55.90;21.10;;;;;;;4.86;100.00;102939.50;5018144;28;20112;-84
2023/12/18 07:10:22;;;;;;;72.53;22.73;;;;;;;4.85;100.00;102943.13;5050571;28;20028;-84
2023/12/18 07:12:47;;;;;;;55.88;22.38;;;;;;;4.87;100.00;102951.22;5020317;28;20025;-83
2023/12/18 07:15:13;;;;;;;60.60;22.20;;;;;;;4.87;100.00;102940.38;5003896;28;20094;-85
2023/12/18 07:17:38;;;;;;;61.50;22.80;;;;;;;4.83;100.00;102939.53;5059084;28;20037;-85
2023/12/18 07:20:06;;;;;;;66.88;21.50;;;;;;;4.86;100.00;102947.63;5037532;28;20021;-85
2023/12/18 07:22:33;;;;;;;61.33;21.88;;;;;;;4.86;100.00;102944.91;5011766;28;20035;-83
2023/12/18 07:24:59;;;;;;;63.70;22.00;;;;;;;4.89;100.00;102952.09;5056310;28;20033;-84
2023/12/18 07:27:24;;;;;;;69.22;23.23;;;;;;;4.85;100.00;102944.94;5032130;28;20117;-83
2023/12/18 07:29:49;;;;;;;68.13;22.38;;;;;;;4.82;100.00;102951.34;5004183;28;20483;-83
2023/12/18 07:32:16;;;;;;;67.97;21.80;;;;;;;4.86;100.00;102950.34;5052528;28;20048;-84
2023/12/18 07:34:42;;;;;;;75.00;22.98;;;;;;;4.85;100.00;102953.09;5025387;28;20115;-83
2023/12/18 07:37:07;;;;;;;61.50;22.02;;;;;;;4.83;100.00;102939.53;5056509;28;20421;-83
2023/12/18 07:39:33;;;;;;;72.05;23.33;;;;;;;4.91;100.00;102940.28;5045811;28;20490;-87
2023/12/18 07:41:58;;;;;;;56.35;21.58;;;;;;;4.88;100.00;102948.47;5039015;28;20061;-84
2023/12/18 07:44:24;;;;;;;53.28;19.38;;;;;;;4.91;100.00;102944.81;5032878;28;20049;-85
2023/12/18 07:46:52;;;;;;;64.15;21.52;;;;;;;4.91;100.00;102950.25;4986363;28;20087;-84
2023/12/18 07:49:18;;;;;;;66.90;22.55;;;;;;;4.92;100.00;102954.72;5001846;28;20112;-83
2023/12/18 07:51:45;;;;;;;74.47;22.20;;;;;;;4.92;100.00;102950.22;5006018;28;20128;-84
2023/12/18 07:54:10;;;;;;;70.32;22.23;;;;;;;4.87;100.00;102944.00;5024087;28;20029;-84
2023/12/18 07:56:36;;;;;;;59.75;21.65;;;;;;;4.91;100.00;102955.69;4999790;28;20376;-86
2023/12/18 07:59:03;;;;;;;66.60;22.73;;;;;;;4.89;100.00;102953.00;5014357;28;20112;-88
2023/12/18 08:01:39;;;;;;;65.72;22.30;;;;;;;4.94;100.00;102948.34;4991812;28;20025;-88
2023/12/18 08:04:05;;;;;;;65.07;21.23;;;;;;;4.87;100.00;102952.13;5029875;28;20026;-90
2023/12/18 08:06:32;;;;;;;74.22;23.85;;;;;;;4.90;100.00;102951.16;5012186;28;20032;-94
2023/12/18 08:08:58;;;;;;;66.10;21.65;;;;;;;4.84;100.00;102941.34;5025422;28;20083;-94
2023/12/18 08:11:23;;;;;;;60.90;23.90;;;;;;;4.85;100.00;102951.25;5025308;28;20033;-93
2023/12/18 08:13:48;;;;;;;79.00;24.17;;;;;;;4.91;100.00;102948.41;5007239;28;20075;-91
2023/12/18 08:16:25;;;;;;;60.58;22.45;;;;;;;4.89;100.00;102947.56;4999464;28;20038;-96
2023/12/18 08:18:50;;;;;;;62.40;23.90;;;;;;;4.86;100.00;102949.47;5005130;28;20156;-89
2023/12/18 08:21:16;;;;;;;65.80;24.58;;;;;;;4.90;100.00;102934.88;4995592;28;20543;-93
2023/12/18 08:23:42;;;;;;;59.00;21.70;;;;;;;4.89;100.00;102935.81;5000055;28;20033;-89
2023/12/18 08:26:11;;;;;;;69.55;22.70;;;;;;;4.86;100.00;102938.59;5022660;28;20053;-88
2023/12/18 08:28:41;;;;;;;68.55;24.10;;;;;;;4.93;100.00;102943.84;5032654;28;20502;-88
2023/12/18 08:31:07;;;;;;;62.30;22.40;;;;;;;4.88;100.00;102925.88;5013161;28;20022;-90
2023/12/18 08:33:32;;;;;;;60.97;23.85;;;;;;;4.91;100.00;102929.41;4987974;28;20037;-91
2023/12/18 08:35:57;;;;;;;70.95;24.23;;;;;;;4.95;100.00;102942.00;5003141;28;20033;-91
2023/12/18 08:38:23;;;;;;;68.88;23.63;;;;;;;4.95;100.00;102941.09;4998218;28;20040;-88
2023/12/18 08:40:48;;;;;;;56.60;21.63;;;;;;;4.98;100.00;102935.59;4976607;28;20029;-92
2023/12/18 08:43:14;;;;;;;74.13;23.98;;;;;;;4.96;100.00;102924.78;4989670;28;20061;-89
2023/12/18 08:45:39;;;;;;;59.15;22.13;;;;;;;4.95;100.00;102922.09;4981996;28;20034;-88
2023/12/18 08:48:05;;;;;;;68.18;23.58;;;;;;;5.00;100.00;102922.00;4999487;28;20120;-88
2023/12/18 08:50:31;;;;;;;69.88;23.17;;;;;;;5.00;100.00;102922.91;4996865;28;20053;-90
2023/12/18 08:52:56;;;;;;;63.42;22.30;;;;;;;4.98;100.00;102908.47;5009602;28;20100;-90
2023/12/18 08:55:22;;;;;;;60.35;23.73;;;;;;;5.02;100.00;102921.06;4991008;28;20082;-90
2023/12/18 08:57:47;;;;;;;65.70;23.13;;;;;;;5.06;100.00;102909.19;5019006;28;20151;-92
2023/12/18 09:00:13;;;;;;;64.75;22.05;;;;;;;5.06;100.00;102901.03;4998911;28;20115;-87
2023/12/18 09:02:39;;;;;;;63.72;21.50;;;;;;;5.00;100.00;102893.06;4999907;28;20029;-87
2023/12/18 09:05:05;;;;;;;58.40;22.42;;;;;;;5.01;100.00;102894.81;4999934;28;20120;-85
2023/12/18 09:07:30;;;;;;;66.93;23.52;;;;;;;5.11;100.00;102890.06;5014677;28;20024;-86
2023/12/18 09:09:56;;;;;;;57.47;21.73;;;;;;;5.10;100.00;102891.00;5018369;28;20394;-87
2023/12/18 09:12:21;;;;;;;53.72;21.15;;;;;;;5.12;100.00;102889.16;5011637;28;20499;-87
2023/12/18 09:14:46;;;;;;;63.85;23.20;;;;;;;5.11;100.00;102887.34;5016237;28;20051;-87
2023/12/18 09:17:12;;;;;;;64.25;23.98;;;;;;;5.12;100.00;102883.72;4994178;28;20029;-87
2023/12/18 09:19:37;;;;;;;78.55;23.33;;;;;;;5.13;100.00;102894.56;5002909;28;20041;-86
2023/12/18 09:22:03;;;;;;;52.65;21.00;;;;;;;5.16;100.00;102893.56;5025496;28;20026;-87
2023/12/18 09:24:29;;;;;;;59.08;22.05;;;;;;;5.24;100.00;102893.41;5018469;28;20063;-87
2023/12/18 09:26:55;;;;;;;60.88;22.38;;;;;;;5.24;100.00;102898.84;4987991;28;20024;-87
2023/12/18 09:29:20;;;;;;;58.92;20.98;;;;;;;5.23;100.00;102892.50;4992793;28;20029;-86
2023/12/18 09:31:47;;;;;;;64.40;22.50;;;;;;;5.24;100.00;102891.56;4985565;28;20033;-87
2023/12/18 09:34:13;;;;;;;51.05;20.05;;;;;;;5.22;100.00;102898.88;4999875;28;20037;-87
2023/12/18 09:36:38;;;;;;;67.07;22.63;;;;;;;5.22;100.00;102896.16;5014952;28;20038;-87
2023/12/18 09:39:04;;;;;;;55.38;21.25;;;;;;;5.26;100.00;102896.97;5031289;28;20128;-87
2023/12/18 09:41:30;;;;;;;54.38;20.85;;;;;;;5.25;100.00;102908.78;5007882;28;20165;-87
2023/12/18 09:43:56;;;;;;;58.15;20.73;;;;;;;5.28;100.00;102905.97;5008268;28;20045;-87
2023/12/18 09:46:24;;;;;;;52.47;19.52;;;;;;;5.33;100.00;102918.50;5017401;28;20033;-88
2023/12/18 09:48:53;;;;;;;56.67;21.15;;;;;;;5.28;100.00;102922.25;4992774;28;20557;-87
2023/12/18 09:51:24;;;;;;;51.50;20.27;;;;;;;5.28;100.00;102920.44;5015136;28;20030;-86
2023/12/18 09:53:51;;;;;;;54.67;18.83;;;;;;;5.29;100.00;102918.63;4997954;28;20039;-87
2023/12/18 09:56:21;;;;;;;59.90;21.00;;;;;;;5.32;100.00;102916.72;5007544;28;20037;-87
2023/12/18 09:58:47;;;;;;;49.75;19.48;;;;;;;5.31;100.00;102919.47;5001293;28;20029;-88
2023/12/18 10:01:16;;;;;;;50.15;19.65;;;;;;;5.30;100.00;102918.59;4993831;28;20499;-86
2023/12/18 10:03:42;;;;;;;51.10;18.85;;;;;;;5.30;100.00;102910.44;5014882;28;20033;-87
2023/12/18 10:06:08;;;;;;;55.85;20.30;;;;;;;5.33;100.00;102907.66;4996116;28;20040;-88
2023/12/18 10:08:34;;;;;;;63.17;20.48;;;;;;;5.36;100.00;102914.81;5002679;28;20125;-87
2023/12/18 10:11:00;;;;;;;51.80;18.20;;;;;;;5.28;100.00;102914.09;5031318;28;20085;-88
2023/12/18 10:13:26;;;;;;;46.53;18.27;;;;;;;5.28;100.00;102911.38;5019092;28;20124;-90
2023/12/18 10:15:54;;;;;;;49.22;18.90;;;;;;;5.31;100.00;102909.53;5015455;28;20025;-87
2023/12/18 10:18:23;;;;;;;61.50;18.30;;;;;;;5.33;100.00;102894.06;5000702;28;20484;-88
2023/12/18 10:20:49;;;;;;;53.00;17.98;;;;;;;5.29;100.00;102897.78;5010787;28;20388;-88
2023/12/18 10:23:16;;;;;;;53.30;18.52;;;;;;;5.31;100.00;102904.09;5017629;28;20128;-88
2023/12/18 10:25:42;;;;;;;46.33;16.60;;;;;;;5.29;100.00;102896.88;5035022;28;20479;-84
2023/12/18 10:28:08;;;;;;;34.45;16.15;;;;;;;5.25;100.00;102903.34;5018163;28;20033;-87
2023/12/18 10:30:34;;;;;;;47.65;17.10;;;;;;;5.26;100.00;102894.25;5015349;28;20044;-86
2023/12/18 10:33:09;;;;;;;41.72;17.17;;;;;;;5.32;100.00;102895.00;5033689;28;20036;-91
2023/12/18 10:35:35;;;;;;;47.78;17.92;;;;;;;5.32;100.00;102896.81;5013484;28;20116;-89
2023/12/18 10:38:02;;;;;;;40.72;15.52;;;;;;;5.25;100.00;102893.38;5033002;28;20049;-89
2023/12/18 10:40:29;;;;;;;46.17;16.42;;;;;;;5.34;100.00;102878.66;5019274;28;20071;-92
2023/12/18 10:43:03;;;;;;;54.83;17.77;;;;;;;5.35;100.00;102872.31;5009217;28;20110;-91
2023/12/18 10:45:30;;;;;;;41.05;15.63;;;;;;;5.28;100.00;102865.22;5039385;28;20037;-92
2023/12/18 10:48:02;;;;;;;42.83;15.65;;;;;;;5.32;100.00;102870.53;5056043;28;20032;-87
2023/12/18 10:50:32;;;;;;;43.10;15.85;;;;;;;5.29;100.00;102851.59;5060179;28;20050;-90
2023/12/18 10:52:59;;;;;;;40.40;16.08;;;;;;;5.37;100.00;102856.84;5050252;28;20552;-88
2023/12/18 10:55:28;;;;;;;40.78;16.67;;;;;;;5.38;100.00;102855.94;5057248;28;20036;-93
2023/12/18 10:57:57;;;;;;;44.03;16.92;;;;;;;5.40;100.00;102843.19;5006365;28;20107;-90
2023/12/18 11:00:23;;;;;;;48.05;16.70;;;;;;;5.40;100.00;102842.31;5052062;28;20035;-90
2023/12/18 11:02:49;;;;;;;50.38;16.63;;;;;;;5.47;100.00;102843.94;5038649;28;20034;-90
2023/12/18 11:05:17;;;;;;;39.88;15.98;;;;;;;5.41;100.00;102846.81;5027964;28;20494;-90